createdAt,value
2023-05-23T00:02:13.884Z,21.23
2023-05-23T00:04:40.538Z,20.90
2023-05-23T00:07:07.068Z,24.55
2023-05-23T00:09:33.588Z,19.85
2023-05-23T00:12:00.701Z,19.58
2023-05-23T00:14:27.349Z,19.48
2023-05-23T00:16:55.127Z,16.40
2023-05-23T00:19:21.998Z,16.52
2023-05-23T00:21:48.781Z,16.50
2023-05-23T00:24:20.426Z,16.67
2023-05-23T00:26:47.231Z,17.30
2023-05-23T00:29:16.563Z,12.70
2023-05-23T00:31:46.677Z,16.92
2023-05-23T00:34:14.586Z,17.95
2023-05-23T00:36:41.858Z,15.60
2023-05-23T00:39:08.687Z,14.30
2023-05-23T00:41:36.267Z,14.80
2023-05-23T00:44:03.032Z,11.48
2023-05-23T00:46:31.162Z,14.32
2023-05-23T00:48:57.815Z,14.93
2023-05-23T00:51:25.051Z,15.18
2023-05-23T00:53:51.772Z,15.20
2023-05-23T00:56:18.880Z,12.57
2023-05-23T00:58:45.539Z,13.88
2023-05-23T01:01:12.076Z,10.18
2023-05-23T01:03:38.747Z,13.65
2023-05-23T01:06:05.387Z,15.18
2023-05-23T01:08:31.909Z,15.52
2023-05-23T01:11:04.403Z,14.77
2023-05-23T01:13:37.629Z,13.57
2023-05-23T01:16:41.935Z,12.52
2023-05-23T01:19:44.925Z,13.70
2023-05-23T01:22:28.230Z,13.75
2023-05-23T01:25:10.862Z,14.95
2023-05-23T01:27:51.429Z,9.88
2023-05-23T01:30:20.684Z,13.40
2023-05-23T01:32:53.559Z,15.95
2023-05-23T01:35:28.656Z,16.35
2023-05-23T01:37:56.249Z,14.80
2023-05-23T01:40:24.598Z,17.27
2023-05-23T01:42:52.449Z,13.73
2023-05-23T01:45:20.462Z,15.27
2023-05-23T01:47:50.400Z,15.95
2023-05-23T01:50:17.947Z,17.65
2023-05-23T01:52:46.101Z,17.35
2023-05-23T01:55:16.236Z,17.67
2023-05-23T01:57:48.488Z,15.38
2023-05-23T02:00:15.580Z,16.60
2023-05-23T02:02:42.487Z,15.38
2023-05-23T02:05:10.068Z,17.38
2023-05-23T02:07:36.686Z,16.73
2023-05-23T02:10:05.120Z,18.67
2023-05-23T02:12:31.632Z,19.45
2023-05-23T02:14:58.380Z,17.40
2023-05-23T02:17:24.935Z,15.40
2023-05-23T02:19:51.518Z,19.35
2023-05-23T02:22:18.083Z,18.20
2023-05-23T02:24:44.624Z,18.75
2023-05-23T02:27:11.118Z,21.58
2023-05-23T02:29:37.618Z,18.85
2023-05-23T02:32:04.210Z,19.80
2023-05-23T02:34:30.916Z,19.80
2023-05-23T02:36:57.372Z,20.65
2023-05-23T02:39:23.882Z,21.52
2023-05-23T02:41:50.490Z,22.13
2023-05-23T02:44:19.574Z,19.75
2023-05-23T02:46:46.523Z,25.27
2023-05-23T02:49:13.072Z,21.50
2023-05-23T02:51:39.640Z,22.05
2023-05-23T02:54:06.169Z,20.13
2023-05-23T02:56:32.673Z,22.73
2023-05-23T02:58:59.168Z,19.90
2023-05-23T03:01:25.840Z,21.08
2023-05-23T03:03:52.412Z,19.38
2023-05-23T03:06:19.177Z,21.52
2023-05-23T03:08:45.733Z,19.67
2023-05-23T03:11:12.248Z,14.63
2023-05-23T03:13:38.848Z,19.80
2023-05-23T03:16:05.534Z,21.08
2023-05-23T03:18:32.121Z,16.05
2023-05-23T03:20:58.639Z,20.83
2023-05-23T03:23:25.260Z,19.40
2023-05-23T03:25:51.810Z,17.85
2023-05-23T03:28:18.324Z,18.52
2023-05-23T03:30:44.865Z,15.20
2023-05-23T03:33:12.242Z,20.23
2023-05-23T03:35:38.901Z,17.15
2023-05-23T03:38:05.635Z,18.27
2023-05-23T03:40:32.115Z,18.70
2023-05-23T03:43:06.043Z,16.55
2023-05-23T03:45:33.041Z,15.75
2023-05-23T03:48:00.409Z,18.10
2023-05-23T03:50:27.795Z,19.95
2023-05-23T03:52:54.702Z,19.25
2023-05-23T03:55:22.540Z,17.88
2023-05-23T03:57:49.647Z,19.50
2023-05-23T04:00:16.666Z,19.98
2023-05-23T04:02:43.910Z,18.92
2023-05-23T04:05:10.542Z,19.17
2023-05-23T04:07:37.461Z,21.35
2023-05-23T04:10:04.688Z,19.50
2023-05-23T04:12:31.477Z,20.52
2023-05-23T04:14:58.273Z,19.08
2023-05-23T04:17:25.776Z,19.27
2023-05-23T04:19:52.758Z,19.58
2023-05-23T04:22:19.219Z,19.90
2023-05-23T04:24:45.896Z,20.85
2023-05-23T04:27:13.699Z,23.38
2023-05-23T04:29:40.207Z,22.42
2023-05-23T04:32:07.193Z,20.73
2023-05-23T04:34:34.243Z,22.95
2023-05-23T04:37:04.624Z,21.58
2023-05-23T04:39:31.172Z,22.67
2023-05-23T04:41:57.876Z,22.50
2023-05-23T04:44:24.388Z,24.58
2023-05-23T04:46:50.949Z,22.75
2023-05-23T04:49:17.539Z,28.25
2023-05-23T04:51:44.070Z,22.33
2023-05-23T04:54:11.422Z,26.10
2023-05-23T04:56:38.121Z,26.63
2023-05-23T04:59:04.974Z,26.17
2023-05-23T05:01:31.612Z,24.35
2023-05-23T05:03:58.200Z,24.90
2023-05-23T05:06:24.867Z,25.38
2023-05-23T05:08:51.461Z,26.48
2023-05-23T05:11:18.014Z,25.45
2023-05-23T05:13:44.594Z,25.38
2023-05-23T05:16:11.629Z,22.83
2023-05-23T05:18:39.194Z,21.80
2023-05-23T05:21:06.483Z,24.70
2023-05-23T05:23:33.396Z,24.33
2023-05-23T05:26:00.713Z,21.63
2023-05-23T05:28:27.294Z,22.45
2023-05-23T05:30:55.491Z,24.10
2023-05-23T05:33:25.463Z,24.50
2023-05-23T05:35:52.002Z,26.02
2023-05-23T05:38:18.591Z,24.38
2023-05-23T05:40:45.352Z,26.65
2023-05-23T05:43:11.940Z,27.45
2023-05-23T05:45:38.580Z,26.38
2023-05-23T05:48:05.152Z,26.35
2023-05-23T05:50:31.712Z,24.58
2023-05-23T05:52:58.260Z,22.15
2023-05-23T05:55:24.822Z,21.42
2023-05-23T05:57:51.340Z,21.83
2023-05-23T06:00:19.368Z,28.70
2023-05-23T06:02:51.600Z,23.15
2023-05-23T06:05:18.568Z,25.33
2023-05-23T06:07:45.327Z,24.10
2023-05-23T06:10:14.992Z,20.85
2023-05-23T06:12:42.014Z,23.45
2023-05-23T06:15:09.659Z,24.83
2023-05-23T06:17:36.388Z,22.80
2023-05-23T06:20:04.064Z,27.40
2023-05-23T06:22:30.784Z,21.10
2023-05-23T06:24:57.290Z,23.10
2023-05-23T06:27:23.851Z,21.27
2023-05-23T06:29:50.381Z,17.23
2023-05-23T06:32:16.876Z,19.00
2023-05-23T06:34:43.410Z,23.15
2023-05-23T06:37:09.912Z,17.80
2023-05-23T06:39:36.474Z,21.13
2023-05-23T06:42:04.369Z,16.58
2023-05-23T06:44:30.934Z,17.33
2023-05-23T06:46:58.845Z,18.58
2023-05-23T06:49:25.865Z,18.95
2023-05-23T06:51:52.923Z,19.00
2023-05-23T06:54:19.829Z,20.50
2023-05-23T06:56:46.623Z,17.00
2023-05-23T06:59:13.168Z,24.85
2023-05-23T07:01:40.124Z,19.90
2023-05-23T07:04:06.770Z,19.60
2023-05-23T07:06:35.597Z,26.60
2023-05-23T07:09:02.198Z,22.42
2023-05-23T07:11:28.739Z,20.63
2023-05-23T07:13:55.217Z,20.73
2023-05-23T07:16:21.815Z,17.23
2023-05-23T07:18:48.426Z,19.33
2023-05-23T07:21:14.951Z,23.90
2023-05-23T07:23:41.460Z,21.15
2023-05-23T07:26:09.804Z,17.13
2023-05-23T07:28:37.631Z,21.92
2023-05-23T07:31:04.354Z,16.65
2023-05-23T07:33:31.211Z,20.50
2023-05-23T07:35:57.731Z,20.10
2023-05-23T07:38:24.321Z,16.30
2023-05-23T07:41:02.616Z,18.58
2023-05-23T07:43:33.740Z,16.70
2023-05-23T07:46:00.396Z,23.02
2023-05-23T07:48:27.300Z,21.35
2023-05-23T07:50:55.541Z,21.17
2023-05-23T07:53:22.626Z,21.33
2023-05-23T07:55:49.249Z,22.92
2023-05-23T07:58:16.238Z,23.88
2023-05-23T08:00:44.290Z,27.45
2023-05-23T08:03:11.895Z,22.67
2023-05-23T08:05:38.513Z,24.55
2023-05-23T08:08:05.138Z,22.95
2023-05-23T08:10:31.671Z,21.90
2023-05-23T08:13:00.543Z,18.92
2023-05-23T08:15:28.810Z,24.77
2023-05-23T08:17:57.330Z,29.70
2023-05-23T08:20:30.858Z,21.25
2023-05-23T08:23:01.671Z,22.75
2023-05-23T08:25:30.636Z,22.08
2023-05-23T08:28:01.177Z,23.30
2023-05-23T08:30:28.961Z,25.83
2023-05-23T08:32:56.658Z,21.88
2023-05-23T08:35:23.586Z,26.05
2023-05-23T08:37:50.919Z,23.90
2023-05-23T08:40:22.375Z,28.73
2023-05-23T08:42:49.865Z,24.70
2023-05-23T08:45:17.492Z,24.40
2023-05-23T08:47:45.867Z,20.38
2023-05-23T08:50:14.516Z,20.15
2023-05-23T08:52:57.316Z,20.73
2023-05-23T08:55:28.429Z,24.85
2023-05-23T08:57:56.293Z,24.90
2023-05-23T09:00:25.426Z,13.23
2023-05-23T09:02:52.754Z,19.63
2023-05-23T09:05:19.596Z,20.92
2023-05-23T09:07:51.796Z,22.60
2023-05-23T09:10:22.234Z,18.92
2023-05-23T09:12:49.618Z,21.13
2023-05-23T09:15:17.179Z,27.65
2023-05-23T09:17:45.327Z,21.13
2023-05-23T09:20:14.866Z,14.43
2023-05-23T09:22:45.856Z,20.50
2023-05-23T09:25:12.484Z,19.20
2023-05-23T09:27:39.016Z,20.10
2023-05-23T09:30:10.187Z,18.55
2023-05-23T09:32:37.082Z,18.30
2023-05-23T09:35:05.632Z,16.35
2023-05-23T09:37:34.487Z,16.65
2023-05-23T09:40:06.392Z,15.55
2023-05-23T09:42:36.277Z,16.63
2023-05-23T09:45:04.454Z,14.95
2023-05-23T09:47:31.792Z,12.80
2023-05-23T09:49:58.509Z,17.05
2023-05-23T09:52:25.136Z,22.92
2023-05-23T09:54:51.671Z,19.63
2023-05-23T09:57:19.505Z,20.48
2023-05-23T09:59:53.971Z,19.40
2023-05-23T10:02:55.638Z,23.53
2023-05-23T10:06:12.572Z,20.63
2023-05-23T10:11:35.721Z,21.90
2023-05-23T10:14:03.447Z,15.15
2023-05-23T10:16:55.321Z,24.13
2023-05-23T10:19:40.647Z,24.08
2023-05-23T10:22:10.257Z,19.48
2023-05-23T10:24:37.697Z,21.98
2023-05-23T10:27:04.705Z,21.55
2023-05-23T10:29:33.888Z,22.50
2023-05-23T10:32:02.831Z,16.67
2023-05-23T10:34:40.966Z,17.50
2023-05-23T10:37:10.278Z,16.02
2023-05-23T10:39:55.091Z,13.93
2023-05-23T10:42:55.347Z,16.03
2023-05-23T10:45:24.269Z,19.08
2023-05-23T10:47:52.795Z,17.60
2023-05-23T10:50:37.152Z,18.40
2023-05-23T10:53:06.152Z,15.85
2023-05-23T10:55:34.884Z,16.48
2023-05-23T10:58:11.931Z,11.40
2023-05-23T11:00:39.003Z,13.40
2023-05-23T11:03:09.073Z,14.95
2023-05-23T11:05:47.654Z,18.08
2023-05-23T11:08:14.877Z,9.50
2023-05-23T11:11:01.291Z,14.88
2023-05-23T11:13:52.937Z,19.88
2023-05-23T11:16:31.000Z,14.80
2023-05-23T11:19:19.660Z,20.67
2023-05-23T11:21:49.775Z,21.13
2023-05-23T11:24:17.710Z,12.98
2023-05-23T11:27:00.376Z,15.75
2023-05-23T11:29:28.957Z,18.08
2023-05-23T11:31:56.705Z,13.23
2023-05-23T11:34:25.933Z,13.52
2023-05-23T11:36:55.853Z,21.15
2023-05-23T11:39:23.273Z,16.90
2023-05-23T11:42:03.375Z,18.50
2023-05-23T11:44:30.482Z,18.77
2023-05-23T11:47:04.386Z,17.52
2023-05-23T11:49:31.849Z,11.93
2023-05-23T11:51:59.874Z,15.93
2023-05-23T11:54:27.435Z,17.50
2023-05-23T11:56:55.223Z,12.80
2023-05-23T11:59:26.549Z,14.95
2023-05-23T12:01:53.755Z,15.00
2023-05-23T12:04:20.699Z,16.42
2023-05-23T12:06:48.818Z,13.77
2023-05-23T12:09:16.212Z,13.52
2023-05-23T12:11:44.260Z,17.38
2023-05-23T12:14:15.650Z,16.25
2023-05-23T12:16:46.165Z,14.48
2023-05-23T12:19:13.121Z,21.15
2023-05-23T12:21:47.292Z,13.80
2023-05-23T12:24:21.485Z,15.52
2023-05-23T12:26:55.362Z,16.52
2023-05-23T12:29:31.124Z,17.50
2023-05-23T12:32:01.000Z,16.70
2023-05-23T12:34:27.978Z,14.95
2023-05-23T12:37:10.592Z,15.35
2023-05-23T12:39:45.708Z,15.77
2023-05-23T12:42:12.520Z,18.17
2023-05-23T12:44:41.563Z,14.45
2023-05-23T12:47:08.358Z,18.13
2023-05-23T12:49:34.977Z,15.77
2023-05-23T12:52:01.544Z,16.85
2023-05-23T12:54:28.066Z,15.35
2023-05-23T12:56:54.583Z,10.20
2023-05-23T12:59:21.216Z,17.45
2023-05-23T13:01:47.773Z,20.58
2023-05-23T13:04:14.399Z,19.63
2023-05-23T13:06:40.941Z,12.35
2023-05-23T13:09:07.505Z,16.05
2023-05-23T13:11:34.046Z,12.35
2023-05-23T13:14:00.583Z,15.32
2023-05-23T13:16:27.112Z,19.83
2023-05-23T13:18:53.740Z,16.85
2023-05-23T13:21:20.551Z,14.65
2023-05-23T13:23:47.160Z,16.48
2023-05-23T13:26:14.672Z,17.65
2023-05-23T13:28:41.371Z,13.75
2023-05-23T13:31:08.101Z,18.00
2023-05-23T13:33:34.702Z,13.27
2023-05-23T13:36:01.389Z,13.20
2023-05-23T13:38:27.959Z,18.30
2023-05-23T13:40:54.849Z,14.15
2023-05-23T13:43:22.076Z,12.90
2023-05-23T13:45:48.672Z,12.93
2023-05-23T13:48:15.513Z,19.45
2023-05-23T13:50:43.121Z,16.65
2023-05-23T13:53:15.149Z,13.93
2023-05-23T13:55:41.685Z,19.10
2023-05-23T13:58:08.721Z,14.65
2023-05-23T14:00:35.205Z,16.35
2023-05-23T14:03:01.792Z,12.27
2023-05-23T14:05:28.370Z,18.38
2023-05-23T14:07:54.919Z,17.52
2023-05-23T14:10:21.882Z,12.30
2023-05-23T14:12:48.724Z,12.95
2023-05-23T14:15:16.615Z,13.38
2023-05-23T14:17:43.301Z,14.77
2023-05-23T14:20:10.194Z,15.82
2023-05-23T14:22:36.779Z,19.27
2023-05-23T14:25:03.677Z,14.20
2023-05-23T14:27:30.279Z,14.65
2023-05-23T14:29:56.815Z,11.85
2023-05-23T14:32:23.305Z,11.82
2023-05-23T14:34:49.996Z,13.82
2023-05-23T14:37:16.561Z,11.48
2023-05-23T14:39:43.127Z,17.88
2023-05-23T14:42:09.645Z,11.10
2023-05-23T14:44:36.241Z,14.40
2023-05-23T14:47:02.827Z,7.70
2023-05-23T14:49:29.356Z,14.43
2023-05-23T14:51:55.917Z,15.13
2023-05-23T14:54:22.499Z,14.35
2023-05-23T14:56:51.147Z,11.13
2023-05-23T14:59:19.345Z,10.68
2023-05-23T15:01:46.288Z,17.17
2023-05-23T15:04:13.859Z,11.20
2023-05-23T15:06:40.465Z,13.55
2023-05-23T15:09:07.661Z,15.18
2023-05-23T15:11:38.763Z,10.88
2023-05-23T15:14:05.625Z,12.02
2023-05-23T15:16:35.079Z,11.23
2023-05-23T15:19:01.734Z,11.00
2023-05-23T15:21:28.532Z,10.77
2023-05-23T15:23:55.181Z,9.95
2023-05-23T15:26:22.507Z,13.30
2023-05-23T15:28:49.285Z,20.02
2023-05-23T15:31:15.825Z,12.10
2023-05-23T15:33:42.471Z,13.68
2023-05-23T15:36:09.087Z,12.77
2023-05-23T15:38:35.818Z,14.93
2023-05-23T15:41:03.218Z,6.18
2023-05-23T15:43:29.929Z,15.30
2023-05-23T15:45:56.550Z,10.30
2023-05-23T15:48:23.116Z,12.10
2023-05-23T15:50:49.880Z,16.20
2023-05-23T15:53:16.431Z,12.55
2023-05-23T15:55:43.101Z,15.43
2023-05-23T15:58:10.943Z,13.10
2023-05-23T16:00:37.487Z,13.38
2023-05-23T16:03:04.183Z,16.42
2023-05-23T16:05:30.747Z,14.30
2023-05-23T16:07:57.490Z,12.77
2023-05-23T16:10:24.755Z,15.55
2023-05-23T16:12:51.845Z,16.48
2023-05-23T16:15:18.411Z,15.80
2023-05-23T16:17:45.153Z,15.85
2023-05-23T16:20:11.952Z,13.02
2023-05-23T16:22:38.516Z,18.48
2023-05-23T16:25:06.790Z,12.68
2023-05-23T16:27:33.817Z,15.88
2023-05-23T16:30:00.436Z,11.43
2023-05-23T16:32:28.901Z,20.08
2023-05-23T16:34:55.741Z,15.57
2023-05-23T16:37:22.324Z,11.75
2023-05-23T16:39:48.826Z,12.45
2023-05-23T16:42:15.491Z,10.95
2023-05-23T16:44:42.237Z,13.75
2023-05-23T16:47:08.805Z,15.68
2023-05-23T16:49:35.502Z,15.32
2023-05-23T16:52:02.030Z,14.18
2023-05-23T16:54:28.637Z,11.73
2023-05-23T16:56:55.256Z,12.60
2023-05-23T16:59:21.756Z,15.52
2023-05-23T17:01:48.421Z,14.77
2023-05-23T17:04:15.053Z,16.35
2023-05-23T17:06:41.585Z,16.20
2023-05-23T17:09:08.432Z,18.35
2023-05-23T17:11:34.952Z,17.05
2023-05-23T17:14:01.798Z,13.55
2023-05-23T17:16:30.171Z,17.30
2023-05-23T17:18:56.834Z,14.23
2023-05-23T17:21:23.378Z,11.30
2023-05-23T17:23:49.875Z,14.88
2023-05-23T17:26:18.349Z,15.23
2023-05-23T17:28:46.476Z,12.27
2023-05-23T17:31:13.000Z,13.43
2023-05-23T17:33:39.662Z,12.52
2023-05-23T17:36:06.342Z,17.35
2023-05-23T17:38:32.901Z,13.32
2023-05-23T17:41:00.494Z,10.27
2023-05-23T17:43:27.012Z,13.43
2023-05-23T17:45:53.493Z,13.23
2023-05-23T17:48:22.282Z,12.88
2023-05-23T17:50:54.789Z,11.10
2023-05-23T17:53:21.663Z,16.70
2023-05-23T17:55:48.628Z,10.75
2023-05-23T17:58:15.146Z,14.43
2023-05-23T18:00:41.836Z,17.35
2023-05-23T18:03:09.766Z,14.07
2023-05-23T18:05:36.538Z,12.95
2023-05-23T18:08:03.713Z,15.57
2023-05-23T18:10:30.247Z,14.45
2023-05-23T18:12:56.837Z,13.55
2023-05-23T18:15:25.519Z,18.40
2023-05-23T18:17:55.391Z,19.55
2023-05-23T18:20:22.708Z,20.70
2023-05-23T18:22:53.778Z,15.05
2023-05-23T18:25:22.916Z,13.77
2023-05-23T18:27:49.500Z,11.20
2023-05-23T18:30:16.148Z,10.85
2023-05-23T18:32:42.831Z,14.48
2023-05-23T18:35:09.625Z,13.75
2023-05-23T18:37:36.115Z,11.52
2023-05-23T18:40:02.834Z,11.02
2023-05-23T18:42:30.958Z,9.27
2023-05-23T18:44:57.464Z,11.00
2023-05-23T18:47:24.106Z,12.90
2023-05-23T18:49:50.921Z,19.65
2023-05-23T18:52:17.534Z,17.35
2023-05-23T18:54:44.051Z,18.02
2023-05-23T18:57:11.103Z,14.55
2023-05-23T18:59:37.629Z,14.05
2023-05-23T19:02:04.354Z,15.57
2023-05-23T19:04:31.268Z,13.73
2023-05-23T19:06:57.781Z,13.50
2023-05-23T19:09:24.263Z,8.43
2023-05-23T19:11:50.745Z,13.93
2023-05-23T19:14:17.275Z,11.23
2023-05-23T19:16:43.873Z,13.50
2023-05-23T19:19:11.345Z,12.55
2023-05-23T19:21:37.909Z,17.02
2023-05-23T19:24:07.379Z,13.85
2023-05-23T19:26:34.416Z,14.73
2023-05-23T19:29:01.611Z,12.10
2023-05-23T19:31:28.687Z,11.45
2023-05-23T19:33:55.338Z,16.63
2023-05-23T19:36:21.957Z,14.63
2023-05-23T19:38:48.483Z,10.23
2023-05-23T19:41:15.010Z,16.40
2023-05-23T19:43:41.525Z,17.27
2023-05-23T19:46:08.758Z,12.82
2023-05-23T19:48:35.331Z,8.88
2023-05-23T19:51:01.880Z,9.00
2023-05-23T19:53:28.565Z,16.40
2023-05-23T19:55:55.113Z,14.10
2023-05-23T19:58:21.690Z,14.02
2023-05-23T20:00:48.297Z,11.25
2023-05-23T20:03:14.857Z,8.43
2023-05-23T20:05:41.690Z,15.15
2023-05-23T20:08:08.394Z,15.02
2023-05-23T20:10:34.946Z,14.95
2023-05-23T20:13:01.560Z,16.70
2023-05-23T20:15:39.477Z,12.30
2023-05-23T20:18:11.635Z,17.63
2023-05-23T20:20:38.212Z,15.00
2023-05-23T20:23:05.551Z,11.98
2023-05-23T20:25:33.676Z,13.25
2023-05-23T20:28:00.191Z,21.23
2023-05-23T20:30:27.705Z,15.50
2023-05-23T20:32:54.579Z,15.60
2023-05-23T20:35:21.697Z,11.60
2023-05-23T20:37:48.368Z,14.63
2023-05-23T20:40:14.889Z,16.40
2023-05-23T20:42:41.420Z,13.90
2023-05-23T20:45:09.480Z,15.07
2023-05-23T20:47:37.692Z,16.20
2023-05-23T20:50:04.909Z,12.68
2023-05-23T20:52:31.911Z,8.18
2023-05-23T20:54:58.418Z,13.98
2023-05-23T20:57:24.914Z,10.70
2023-05-23T20:59:51.469Z,13.70
2023-05-23T21:02:18.055Z,21.02
2023-05-23T21:04:44.646Z,13.05
2023-05-23T21:07:11.635Z,15.15
2023-05-23T21:09:38.292Z,16.20
2023-05-23T21:12:05.102Z,12.32
2023-05-23T21:14:31.674Z,12.35
2023-05-23T21:16:58.205Z,14.88
2023-05-23T21:19:24.828Z,12.00
2023-05-23T21:21:53.140Z,15.80
2023-05-23T21:24:19.681Z,12.57
2023-05-23T21:26:46.139Z,17.40
2023-05-23T21:29:12.851Z,18.80
2023-05-23T21:31:41.924Z,11.43
2023-05-23T21:34:22.110Z,11.52
2023-05-23T21:36:51.310Z,12.88
2023-05-23T21:39:17.800Z,12.13
2023-05-23T21:41:44.415Z,11.38
2023-05-23T21:44:12.204Z,21.42
2023-05-23T21:46:38.929Z,15.13
2023-05-23T21:49:06.698Z,14.45
2023-05-23T21:51:33.239Z,18.95
2023-05-23T21:53:59.732Z,13.15
2023-05-23T21:56:26.360Z,17.98
2023-05-23T21:58:52.893Z,13.75
2023-05-23T22:01:19.390Z,10.80
2023-05-23T22:03:46.044Z,12.68
2023-05-23T22:06:12.781Z,17.95
2023-05-23T22:08:39.327Z,13.35
2023-05-23T22:11:05.863Z,14.15
2023-05-23T22:13:32.362Z,18.13
2023-05-23T22:15:58.965Z,17.20
2023-05-23T22:18:27.619Z,22.70
2023-05-23T22:20:55.370Z,14.43
2023-05-23T22:23:21.922Z,11.93
2023-05-23T22:25:49.042Z,15.48
2023-05-23T22:28:15.627Z,17.55
2023-05-23T22:30:42.429Z,19.02
2023-05-23T22:33:13.003Z,17.05
2023-05-23T22:35:42.906Z,14.48
2023-05-23T22:38:10.142Z,16.60
2023-05-23T22:40:39.988Z,12.15
2023-05-23T22:43:07.713Z,15.38
2023-05-23T22:45:43.176Z,15.18
2023-05-23T22:48:11.266Z,11.75
2023-05-23T22:50:41.494Z,16.50
2023-05-23T22:53:08.833Z,16.58
2023-05-23T22:55:35.823Z,12.20
2023-05-23T22:58:02.476Z,10.15
2023-05-23T23:00:29.542Z,17.15
2023-05-23T23:02:56.173Z,17.65
2023-05-23T23:05:23.059Z,15.10
2023-05-23T23:07:49.540Z,14.25
2023-05-23T23:10:16.216Z,14.50
2023-05-23T23:12:42.963Z,13.50
2023-05-23T23:15:09.872Z,16.23
2023-05-23T23:17:36.429Z,13.10
2023-05-23T23:20:04.130Z,16.52
2023-05-23T23:22:30.643Z,14.55
2023-05-23T23:24:57.158Z,14.00
2023-05-23T23:27:30.625Z,13.45
2023-05-23T23:29:58.453Z,19.15
2023-05-23T23:32:26.054Z,17.30
2023-05-23T23:34:53.096Z,11.23
2023-05-23T23:37:19.612Z,13.77
2023-05-23T23:39:46.205Z,21.75
2023-05-23T23:42:12.836Z,20.00
2023-05-23T23:44:39.450Z,13.32
2023-05-23T23:47:06.115Z,15.75
2023-05-23T23:49:32.620Z,15.25
2023-05-23T23:51:59.536Z,12.13
2023-05-23T23:54:26.055Z,9.00
2023-05-23T23:56:52.534Z,13.30
2023-05-23T23:59:20.828Z,17.85
